sensor_id;sensor_type;location;lat;lon;timestamp;temperature;humidity
80212;DHT22;70434;37.956;23.722;2023-11-18T00:00:23;21.40;56.00
80212;DHT22;70434;37.956;23.722;2023-11-18T00:02:49;21.40;56.00
80212;DHT22;70434;37.956;23.722;2023-11-18T00:05:15;21.30;56.10
80212;DHT22;70434;37.956;23.722;2023-11-18T00:07:41;21.30;56.00
80212;DHT22;70434;37.956;23.722;2023-11-18T00:10:08;21.40;56.00
80212;DHT22;70434;37.956;23.722;2023-11-18T00:12:36;21.40;55.90
80212;DHT22;70434;37.956;23.722;2023-11-18T00:15:03;21.40;55.90
80212;DHT22;70434;37.956;23.722;2023-11-18T00:17:30;21.40;56.00
80212;DHT22;70434;37.956;23.722;2023-11-18T00:19:56;21.40;55.90
80212;DHT22;70434;37.956;23.722;2023-11-18T00:22:22;21.40;55.80
80212;DHT22;70434;37.956;23.722;2023-11-18T00:24:48;21.30;56.10
80212;DHT22;70434;37.956;23.722;2023-11-18T00:27:13;21.30;55.70
80212;DHT22;70434;37.956;23.722;2023-11-18T00:29:40;21.30;55.70
80212;DHT22;70434;37.956;23.722;2023-11-18T00:32:07;21.40;55.60
80212;DHT22;70434;37.956;23.722;2023-11-18T00:34:35;21.40;55.50
80212;DHT22;70434;37.956;23.722;2023-11-18T00:37:01;21.40;55.40
80212;DHT22;70434;37.956;23.722;2023-11-18T00:39:27;21.50;55.20
80212;DHT22;70434;37.956;23.722;2023-11-18T00:41:53;21.50;55.10
80212;DHT22;70434;37.956;23.722;2023-11-18T00:44:19;21.50;55.00
80212;DHT22;70434;37.956;23.722;2023-11-18T00:46:45;21.60;54.90
80212;DHT22;70434;37.956;23.722;2023-11-18T00:49:10;21.60;55.00
80212;DHT22;70434;37.956;23.722;2023-11-18T00:51:37;21.50;55.10
80212;DHT22;70434;37.956;23.722;2023-11-18T00:54:04;21.50;55.20
80212;DHT22;70434;37.956;23.722;2023-11-18T00:56:34;21.40;55.40
80212;DHT22;70434;37.956;23.722;2023-11-18T00:59:00;21.40;55.20
80212;DHT22;70434;37.956;23.722;2023-11-18T01:01:29;21.40;55.00
80212;DHT22;70434;37.956;23.722;2023-11-18T01:03:54;21.30;54.90
80212;DHT22;70434;37.956;23.722;2023-11-18T01:06:20;21.30;54.90
80212;DHT22;70434;37.956;23.722;2023-11-18T01:08:47;21.30;54.60
80212;DHT22;70434;37.956;23.722;2023-11-18T01:11:17;21.40;54.30
80212;DHT22;70434;37.956;23.722;2023-11-18T01:13:48;21.30;54.30
80212;DHT22;70434;37.956;23.722;2023-11-18T01:16:14;21.40;54.00
80212;DHT22;70434;37.956;23.722;2023-11-18T01:18:41;21.40;53.90
80212;DHT22;70434;37.956;23.722;2023-11-18T01:21:06;21.30;53.80
80212;DHT22;70434;37.956;23.722;2023-11-18T01:23:38;21.40;53.60
80212;DHT22;70434;37.956;23.722;2023-11-18T01:26:08;21.50;53.60
80212;DHT22;70434;37.956;23.722;2023-11-18T01:28:34;21.50;53.40
80212;DHT22;70434;37.956;23.722;2023-11-18T01:31:07;21.60;53.30
80212;DHT22;70434;37.956;23.722;2023-11-18T01:33:40;21.70;53.20
80212;DHT22;70434;37.956;23.722;2023-11-18T01:36:09;21.60;53.20
80212;DHT22;70434;37.956;23.722;2023-11-18T01:38:36;21.60;53.30
80212;DHT22;70434;37.956;23.722;2023-11-18T01:41:03;21.60;53.30
80212;DHT22;70434;37.956;23.722;2023-11-18T01:43:30;21.50;53.60
80212;DHT22;70434;37.956;23.722;2023-11-18T01:46:01;21.50;53.80
80212;DHT22;70434;37.956;23.722;2023-11-18T01:48:29;21.60;53.80
80212;DHT22;70434;37.956;23.722;2023-11-18T01:50:57;21.60;53.80
80212;DHT22;70434;37.956;23.722;2023-11-18T01:53:24;21.50;54.00
80212;DHT22;70434;37.956;23.722;2023-11-18T01:55:50;21.40;54.20
80212;DHT22;70434;37.956;23.722;2023-11-18T01:58:16;21.40;54.40
80212;DHT22;70434;37.956;23.722;2023-11-18T02:00:45;21.40;54.20
80212;DHT22;70434;37.956;23.722;2023-11-18T02:03:14;21.40;54.10
80212;DHT22;70434;37.956;23.722;2023-11-18T02:05:40;21.40;54.00
80212;DHT22;70434;37.956;23.722;2023-11-18T02:08:08;21.50;53.40
80212;DHT22;70434;37.956;23.722;2023-11-18T02:11:00;21.60;52.70
80212;DHT22;70434;37.956;23.722;2023-11-18T02:13:33;21.60;52.40
80212;DHT22;70434;37.956;23.722;2023-11-18T02:16:01;21.70;52.30
80212;DHT22;70434;37.956;23.722;2023-11-18T02:18:30;21.60;52.50
80212;DHT22;70434;37.956;23.722;2023-11-18T02:20:56;21.60;52.70
80212;DHT22;70434;37.956;23.722;2023-11-18T02:23:27;21.60;53.90
80212;DHT22;70434;37.956;23.722;2023-11-18T02:25:53;21.70;53.30
80212;DHT22;70434;37.956;23.722;2023-11-18T02:28:21;21.60;53.50
80212;DHT22;70434;37.956;23.722;2023-11-18T02:30:47;21.60;53.60
80212;DHT22;70434;37.956;23.722;2023-11-18T02:33:34;21.60;54.00
80212;DHT22;70434;37.956;23.722;2023-11-18T02:36:10;21.50;54.20
80212;DHT22;70434;37.956;23.722;2023-11-18T02:38:44;21.50;54.00
80212;DHT22;70434;37.956;23.722;2023-11-18T02:41:12;21.60;53.90
80212;DHT22;70434;37.956;23.722;2023-11-18T02:43:40;21.50;54.10
80212;DHT22;70434;37.956;23.722;2023-11-18T02:46:09;21.60;54.10
80212;DHT22;70434;37.956;23.722;2023-11-18T02:48:38;21.60;54.10
80212;DHT22;70434;37.956;23.722;2023-11-18T02:51:04;21.60;54.30
80212;DHT22;70434;37.956;23.722;2023-11-18T02:53:30;21.60;54.30
80212;DHT22;70434;37.956;23.722;2023-11-18T02:55:56;21.60;54.30
80212;DHT22;70434;37.956;23.722;2023-11-18T02:58:29;21.60;54.30
80212;DHT22;70434;37.956;23.722;2023-11-18T03:00:55;21.60;54.00
80212;DHT22;70434;37.956;23.722;2023-11-18T03:03:21;21.60;53.50
80212;DHT22;70434;37.956;23.722;2023-11-18T03:05:49;21.60;53.40
80212;DHT22;70434;37.956;23.722;2023-11-18T03:08:15;21.60;53.40
80212;DHT22;70434;37.956;23.722;2023-11-18T03:10:41;21.60;53.30
80212;DHT22;70434;37.956;23.722;2023-11-18T03:13:10;21.70;53.40
80212;DHT22;70434;37.956;23.722;2023-11-18T03:15:38;21.70;53.60
80212;DHT22;70434;37.956;23.722;2023-11-18T03:18:03;21.70;53.90
80212;DHT22;70434;37.956;23.722;2023-11-18T03:20:32;21.60;54.70
80212;DHT22;70434;37.956;23.722;2023-11-18T03:23:00;21.30;55.30
80212;DHT22;70434;37.956;23.722;2023-11-18T03:25:28;21.30;55.00
80212;DHT22;70434;37.956;23.722;2023-11-18T03:27:54;21.30;54.50
80212;DHT22;70434;37.956;23.722;2023-11-18T03:30:20;21.30;54.10
80212;DHT22;70434;37.956;23.722;2023-11-18T03:32:46;21.50;53.80
80212;DHT22;70434;37.956;23.722;2023-11-18T03:35:12;21.60;53.30
80212;DHT22;70434;37.956;23.722;2023-11-18T03:37:39;21.60;53.20
80212;DHT22;70434;37.956;23.722;2023-11-18T03:40:11;21.60;53.10
80212;DHT22;70434;37.956;23.722;2023-11-18T03:42:37;21.60;53.10
80212;DHT22;70434;37.956;23.722;2023-11-18T03:45:04;21.70;52.60
80212;DHT22;70434;37.956;23.722;2023-11-18T03:47:30;21.70;52.30
80212;DHT22;70434;37.956;23.722;2023-11-18T03:49:56;21.80;53.10
80212;DHT22;70434;37.956;23.722;2023-11-18T03:52:22;21.70;52.00
80212;DHT22;70434;37.956;23.722;2023-11-18T03:54:48;21.70;52.00
80212;DHT22;70434;37.956;23.722;2023-11-18T03:57:14;21.70;51.80
80212;DHT22;70434;37.956;23.722;2023-11-18T03:59:40;21.70;51.70
80212;DHT22;70434;37.956;23.722;2023-11-18T04:02:09;21.70;51.60
80212;DHT22;70434;37.956;23.722;2023-11-18T04:04:37;21.70;51.70
80212;DHT22;70434;37.956;23.722;2023-11-18T04:07:03;21.60;51.50
80212;DHT22;70434;37.956;23.722;2023-11-18T04:09:29;21.50;51.80
80212;DHT22;70434;37.956;23.722;2023-11-18T04:11:55;21.30;52.50
80212;DHT22;70434;37.956;23.722;2023-11-18T04:14:21;21.30;52.70
80212;DHT22;70434;37.956;23.722;2023-11-18T04:16:47;21.10;53.30
80212;DHT22;70434;37.956;23.722;2023-11-18T04:19:14;21.00;53.60
80212;DHT22;70434;37.956;23.722;2023-11-18T04:21:40;20.80;53.70
80212;DHT22;70434;37.956;23.722;2023-11-18T04:24:06;20.80;53.80
80212;DHT22;70434;37.956;23.722;2023-11-18T04:26:32;20.50;54.50
80212;DHT22;70434;37.956;23.722;2023-11-18T04:28:58;20.50;54.80
80212;DHT22;70434;37.956;23.722;2023-11-18T04:31:26;20.30;55.20
80212;DHT22;70434;37.956;23.722;2023-11-18T04:33:52;20.30;55.40
80212;DHT22;70434;37.956;23.722;2023-11-18T04:36:18;20.30;55.50
80212;DHT22;70434;37.956;23.722;2023-11-18T04:38:44;20.20;55.60
80212;DHT22;70434;37.956;23.722;2023-11-18T04:41:10;20.20;55.60
80212;DHT22;70434;37.956;23.722;2023-11-18T04:43:36;20.30;55.40
80212;DHT22;70434;37.956;23.722;2023-11-18T04:46:01;20.30;55.20
80212;DHT22;70434;37.956;23.722;2023-11-18T04:48:27;20.30;55.20
80212;DHT22;70434;37.956;23.722;2023-11-18T04:50:53;20.40;54.90
80212;DHT22;70434;37.956;23.722;2023-11-18T04:53:18;20.40;54.60
80212;DHT22;70434;37.956;23.722;2023-11-18T04:55:44;20.50;54.50
80212;DHT22;70434;37.956;23.722;2023-11-18T04:58:10;20.40;54.50
80212;DHT22;70434;37.956;23.722;2023-11-18T05:00:39;20.30;54.90
80212;DHT22;70434;37.956;23.722;2023-11-18T05:03:05;20.30;55.00
80212;DHT22;70434;37.956;23.722;2023-11-18T05:05:37;20.30;54.80
80212;DHT22;70434;37.956;23.722;2023-11-18T05:08:04;20.20;54.30
80212;DHT22;70434;37.956;23.722;2023-11-18T05:10:32;20.30;54.00
80212;DHT22;70434;37.956;23.722;2023-11-18T05:12:59;20.20;53.40
80212;DHT22;70434;37.956;23.722;2023-11-18T05:15:24;20.20;53.20
80212;DHT22;70434;37.956;23.722;2023-11-18T05:17:51;20.20;52.60
80212;DHT22;70434;37.956;23.722;2023-11-18T05:20:17;20.20;52.70
80212;DHT22;70434;37.956;23.722;2023-11-18T05:22:43;20.10;53.00
80212;DHT22;70434;37.956;23.722;2023-11-18T05:25:09;20.10;53.00
80212;DHT22;70434;37.956;23.722;2023-11-18T05:27:38;20.20;53.00
80212;DHT22;70434;37.956;23.722;2023-11-18T05:30:11;20.10;52.70
80212;DHT22;70434;37.956;23.722;2023-11-18T05:32:36;20.10;52.80
80212;DHT22;70434;37.956;23.722;2023-11-18T05:35:04;20.10;52.80
80212;DHT22;70434;37.956;23.722;2023-11-18T05:37:30;20.20;51.90
80212;DHT22;70434;37.956;23.722;2023-11-18T05:40:01;20.10;51.50
80212;DHT22;70434;37.956;23.722;2023-11-18T05:42:35;20.00;51.30
80212;DHT22;70434;37.956;23.722;2023-11-18T05:45:05;20.10;52.40
80212;DHT22;70434;37.956;23.722;2023-11-18T05:47:33;20.20;50.20
80212;DHT22;70434;37.956;23.722;2023-11-18T05:50:00;20.30;49.40
80212;DHT22;70434;37.956;23.722;2023-11-18T05:52:26;20.10;49.00
80212;DHT22;70434;37.956;23.722;2023-11-18T05:54:52;20.20;48.80
80212;DHT22;70434;37.956;23.722;2023-11-18T05:57:19;20.30;48.60
80212;DHT22;70434;37.956;23.722;2023-11-18T05:59:45;20.40;48.00
80212;DHT22;70434;37.956;23.722;2023-11-18T06:02:13;20.20;46.60
80212;DHT22;70434;37.956;23.722;2023-11-18T06:04:44;20.20;47.80
80212;DHT22;70434;37.956;23.722;2023-11-18T06:07:10;20.30;47.70
80212;DHT22;70434;37.956;23.722;2023-11-18T06:09:35;20.20;47.80
80212;DHT22;70434;37.956;23.722;2023-11-18T06:12:01;20.30;47.50
80212;DHT22;70434;37.956;23.722;2023-11-18T06:14:27;20.30;47.20
80212;DHT22;70434;37.956;23.722;2023-11-18T06:16:53;20.40;45.90
80212;DHT22;70434;37.956;23.722;2023-11-18T06:19:19;20.20;46.30
80212;DHT22;70434;37.956;23.722;2023-11-18T06:21:46;20.00;47.70
80212;DHT22;70434;37.956;23.722;2023-11-18T06:24:12;19.90;47.80
80212;DHT22;70434;37.956;23.722;2023-11-18T06:26:39;19.90;47.50
80212;DHT22;70434;37.956;23.722;2023-11-18T06:29:07;19.80;47.90
80212;DHT22;70434;37.956;23.722;2023-11-18T06:31:32;19.80;49.60
80212;DHT22;70434;37.956;23.722;2023-11-18T06:33:58;19.60;50.50
80212;DHT22;70434;37.956;23.722;2023-11-18T06:36:24;19.60;50.90
80212;DHT22;70434;37.956;23.722;2023-11-18T06:38:53;19.50;50.50
80212;DHT22;70434;37.956;23.722;2023-11-18T06:41:23;19.50;50.40
80212;DHT22;70434;37.956;23.722;2023-11-18T06:43:49;19.60;50.10
80212;DHT22;70434;37.956;23.722;2023-11-18T06:48:54;19.70;49.90
80212;DHT22;70434;37.956;23.722;2023-11-18T06:51:21;19.70;49.90
80212;DHT22;70434;37.956;23.722;2023-11-18T06:53:53;19.70;49.70
80212;DHT22;70434;37.956;23.722;2023-11-18T06:56:26;19.70;49.50
80212;DHT22;70434;37.956;23.722;2023-11-18T06:58:52;19.70;49.60
80212;DHT22;70434;37.956;23.722;2023-11-18T07:01:19;19.60;50.00
80212;DHT22;70434;37.956;23.722;2023-11-18T07:03:46;19.50;50.80
80212;DHT22;70434;37.956;23.722;2023-11-18T07:06:17;19.40;51.30
80212;DHT22;70434;37.956;23.722;2023-11-18T07:08:48;19.20;51.70
80212;DHT22;70434;37.956;23.722;2023-11-18T07:11:17;19.00;52.20
80212;DHT22;70434;37.956;23.722;2023-11-18T07:13:44;18.80;52.40
80212;DHT22;70434;37.956;23.722;2023-11-18T07:16:10;18.80;52.50
80212;DHT22;70434;37.956;23.722;2023-11-18T07:18:36;18.90;51.60
80212;DHT22;70434;37.956;23.722;2023-11-18T07:21:05;18.80;51.60
80212;DHT22;70434;37.956;23.722;2023-11-18T07:23:31;18.80;51.30
80212;DHT22;70434;37.956;23.722;2023-11-18T07:25:57;18.90;51.30
80212;DHT22;70434;37.956;23.722;2023-11-18T07:28:23;18.80;50.80
80212;DHT22;70434;37.956;23.722;2023-11-18T07:30:49;18.60;52.40
80212;DHT22;70434;37.956;23.722;2023-11-18T07:33:18;18.60;52.50
80212;DHT22;70434;37.956;23.722;2023-11-18T07:35:47;18.10;53.30
80212;DHT22;70434;37.956;23.722;2023-11-18T07:38:14;17.70;52.60
80212;DHT22;70434;37.956;23.722;2023-11-18T07:40:40;17.50;53.30
80212;DHT22;70434;37.956;23.722;2023-11-18T07:43:08;17.60;51.90
80212;DHT22;70434;37.956;23.722;2023-11-18T07:45:38;17.60;50.90
80212;DHT22;70434;37.956;23.722;2023-11-18T07:48:13;17.70;50.50
80212;DHT22;70434;37.956;23.722;2023-11-18T07:50:43;17.70;50.20
80212;DHT22;70434;37.956;23.722;2023-11-18T07:53:13;17.60;49.70
80212;DHT22;70434;37.956;23.722;2023-11-18T07:55:39;17.60;50.60
80212;DHT22;70434;37.956;23.722;2023-11-18T07:58:08;17.70;50.20
80212;DHT22;70434;37.956;23.722;2023-11-18T08:00:43;17.90;50.00
80212;DHT22;70434;37.956;23.722;2023-11-18T08:03:10;18.10;49.40
80212;DHT22;70434;37.956;23.722;2023-11-18T08:05:44;18.30;49.20
80212;DHT22;70434;37.956;23.722;2023-11-18T08:08:13;18.00;49.60
80212;DHT22;70434;37.956;23.722;2023-11-18T08:10:42;18.00;49.60
80212;DHT22;70434;37.956;23.722;2023-11-18T08:13:10;17.90;49.50
80212;DHT22;70434;37.956;23.722;2023-11-18T08:15:41;17.70;50.40
80212;DHT22;70434;37.956;23.722;2023-11-18T08:18:10;17.90;50.10
80212;DHT22;70434;37.956;23.722;2023-11-18T08:20:36;17.80;49.30
80212;DHT22;70434;37.956;23.722;2023-11-18T08:23:03;17.60;49.30
80212;DHT22;70434;37.956;23.722;2023-11-18T08:25:30;17.30;50.10
80212;DHT22;70434;37.956;23.722;2023-11-18T08:27:59;17.30;50.40
80212;DHT22;70434;37.956;23.722;2023-11-18T08:30:26;17.00;50.70
80212;DHT22;70434;37.956;23.722;2023-11-18T08:32:52;17.00;50.90
80212;DHT22;70434;37.956;23.722;2023-11-18T08:35:18;17.20;50.60
80212;DHT22;70434;37.956;23.722;2023-11-18T08:37:46;16.80;50.60
80212;DHT22;70434;37.956;23.722;2023-11-18T08:40:13;16.50;51.50
80212;DHT22;70434;37.956;23.722;2023-11-18T08:42:49;16.50;51.60
80212;DHT22;70434;37.956;23.722;2023-11-18T08:45:20;16.30;51.90
80212;DHT22;70434;37.956;23.722;2023-11-18T08:47:57;16.10;53.30
80212;DHT22;70434;37.956;23.722;2023-11-18T08:50:24;16.20;53.70
80212;DHT22;70434;37.956;23.722;2023-11-18T08:52:51;16.30;53.30
80212;DHT22;70434;37.956;23.722;2023-11-18T08:55:23;16.40;52.50
80212;DHT22;70434;37.956;23.722;2023-11-18T08:58:04;16.60;52.60
80212;DHT22;70434;37.956;23.722;2023-11-18T09:00:41;16.70;51.90
80212;DHT22;70434;37.956;23.722;2023-11-18T09:03:13;16.60;51.80
80212;DHT22;70434;37.956;23.722;2023-11-18T09:05:58;16.40;52.30
80212;DHT22;70434;37.956;23.722;2023-11-18T09:08:34;16.50;52.00
80212;DHT22;70434;37.956;23.722;2023-11-18T09:11:04;16.50;50.90
80212;DHT22;70434;37.956;23.722;2023-11-18T09:13:31;16.40;51.50
80212;DHT22;70434;37.956;23.722;2023-11-18T09:15:57;16.70;50.60
80212;DHT22;70434;37.956;23.722;2023-11-18T09:18:26;16.90;50.40
80212;DHT22;70434;37.956;23.722;2023-11-18T09:20:55;16.90;49.30
80212;DHT22;70434;37.956;23.722;2023-11-18T09:23:25;16.60;50.30
80212;DHT22;70434;37.956;23.722;2023-11-18T09:25:53;16.60;50.50
80212;DHT22;70434;37.956;23.722;2023-11-18T09:28:24;16.80;49.60
80212;DHT22;70434;37.956;23.722;2023-11-18T09:30:50;16.90;48.30
80212;DHT22;70434;37.956;23.722;2023-11-18T09:33:21;16.80;48.80
80212;DHT22;70434;37.956;23.722;2023-11-18T09:36:04;16.70;48.50
80212;DHT22;70434;37.956;23.722;2023-11-18T09:41:03;16.60;48.90
80212;DHT22;70434;37.956;23.722;2023-11-18T09:43:33;16.70;48.90
80212;DHT22;70434;37.956;23.722;2023-11-18T09:46:08;16.60;48.90
80212;DHT22;70434;37.956;23.722;2023-11-18T09:51:28;17.10;47.50
80212;DHT22;70434;37.956;23.722;2023-11-18T09:54:08;17.20;47.00
80212;DHT22;70434;37.956;23.722;2023-11-18T10:02:22;17.00;45.70
80212;DHT22;70434;37.956;23.722;2023-11-18T10:04:49;17.20;44.30
80212;DHT22;70434;37.956;23.722;2023-11-18T10:07:24;17.30;43.80
80212;DHT22;70434;37.956;23.722;2023-11-18T10:09:54;17.30;43.00
80212;DHT22;70434;37.956;23.722;2023-11-18T10:12:23;17.10;43.40
80212;DHT22;70434;37.956;23.722;2023-11-18T10:14:51;17.20;43.60
80212;DHT22;70434;37.956;23.722;2023-11-18T10:17:18;17.40;43.30
80212;DHT22;70434;37.956;23.722;2023-11-18T10:19:58;17.50;42.50
80212;DHT22;70434;37.956;23.722;2023-11-18T10:22:38;17.60;42.00
80212;DHT22;70434;37.956;23.722;2023-11-18T10:25:03;17.60;41.80
80212;DHT22;70434;37.956;23.722;2023-11-18T10:27:31;17.70;42.70
80212;DHT22;70434;37.956;23.722;2023-11-18T10:30:06;17.70;42.10
80212;DHT22;70434;37.956;23.722;2023-11-18T10:32:56;17.80;41.40
80212;DHT22;70434;37.956;23.722;2023-11-18T10:35:32;17.90;41.80
80212;DHT22;70434;37.956;23.722;2023-11-18T10:37:57;17.90;40.90
80212;DHT22;70434;37.956;23.722;2023-11-18T10:40:26;17.70;41.20
80212;DHT22;70434;37.956;23.722;2023-11-18T10:42:53;17.70;41.60
80212;DHT22;70434;37.956;23.722;2023-11-18T10:45:24;17.80;41.20
80212;DHT22;70434;37.956;23.722;2023-11-18T10:47:54;17.90;40.80
80212;DHT22;70434;37.956;23.722;2023-11-18T10:50:21;18.10;40.40
80212;DHT22;70434;37.956;23.722;2023-11-18T10:53:00;17.80;41.00
80212;DHT22;70434;37.956;23.722;2023-11-18T10:55:47;17.80;40.90
80212;DHT22;70434;37.956;23.722;2023-11-18T10:58:13;18.10;41.00
80212;DHT22;70434;37.956;23.722;2023-11-18T11:01:06;18.30;40.30
80212;DHT22;70434;37.956;23.722;2023-11-18T11:03:55;18.20;40.10
80212;DHT22;70434;37.956;23.722;2023-11-18T11:06:23;18.10;39.50
80212;DHT22;70434;37.956;23.722;2023-11-18T11:08:50;17.90;39.70
80212;DHT22;70434;37.956;23.722;2023-11-18T11:11:26;17.80;40.10
80212;DHT22;70434;37.956;23.722;2023-11-18T11:13:57;17.70;40.20
80212;DHT22;70434;37.956;23.722;2023-11-18T11:16:28;17.60;40.80
80212;DHT22;70434;37.956;23.722;2023-11-18T11:19:00;17.50;40.30
80212;DHT22;70434;37.956;23.722;2023-11-18T11:21:40;17.30;41.10
80212;DHT22;70434;37.956;23.722;2023-11-18T11:24:21;17.30;41.50
80212;DHT22;70434;37.956;23.722;2023-11-18T11:27:09;17.40;41.00
80212;DHT22;70434;37.956;23.722;2023-11-18T11:29:51;17.30;41.20
80212;DHT22;70434;37.956;23.722;2023-11-18T11:32:35;17.20;40.60
80212;DHT22;70434;37.956;23.722;2023-11-18T11:35:07;17.50;40.80
80212;DHT22;70434;37.956;23.722;2023-11-18T11:37:34;17.40;41.10
80212;DHT22;70434;37.956;23.722;2023-11-18T11:40:03;17.60;41.30
80212;DHT22;70434;37.956;23.722;2023-11-18T11:42:35;17.60;41.00
80212;DHT22;70434;37.956;23.722;2023-11-18T11:45:01;17.50;42.00
80212;DHT22;70434;37.956;23.722;2023-11-18T11:47:29;17.70;42.00
80212;DHT22;70434;37.956;23.722;2023-11-18T11:50:15;17.90;42.20
80212;DHT22;70434;37.956;23.722;2023-11-18T11:53:03;18.10;40.70
80212;DHT22;70434;37.956;23.722;2023-11-18T11:58:29;18.00;40.30
80212;DHT22;70434;37.956;23.722;2023-11-18T12:01:02;17.80;40.30
80212;DHT22;70434;37.956;23.722;2023-11-18T12:03:40;17.40;41.00
80212;DHT22;70434;37.956;23.722;2023-11-18T12:06:08;17.40;41.00
80212;DHT22;70434;37.956;23.722;2023-11-18T12:08:38;17.40;41.20
80212;DHT22;70434;37.956;23.722;2023-11-18T12:11:08;17.50;40.50
80212;DHT22;70434;37.956;23.722;2023-11-18T12:13:37;17.50;41.00
80212;DHT22;70434;37.956;23.722;2023-11-18T12:16:05;17.50;40.50
80212;DHT22;70434;37.956;23.722;2023-11-18T12:18:31;17.40;38.80
80212;DHT22;70434;37.956;23.722;2023-11-18T12:20:59;17.20;39.70
80212;DHT22;70434;37.956;23.722;2023-11-18T12:23:29;17.20;39.50
80212;DHT22;70434;37.956;23.722;2023-11-18T12:25:56;17.10;39.70
80212;DHT22;70434;37.956;23.722;2023-11-18T12:28:30;17.10;39.80
80212;DHT22;70434;37.956;23.722;2023-11-18T12:31:00;17.30;37.30
80212;DHT22;70434;37.956;23.722;2023-11-18T12:34:08;17.00;37.50
80212;DHT22;70434;37.956;23.722;2023-11-18T12:36:50;17.10;37.40
80212;DHT22;70434;37.956;23.722;2023-11-18T12:40:23;17.20;37.00
80212;DHT22;70434;37.956;23.722;2023-11-18T12:42:57;17.30;36.80
80212;DHT22;70434;37.956;23.722;2023-11-18T12:46:27;17.10;37.80
80212;DHT22;70434;37.956;23.722;2023-11-18T12:48:56;17.40;37.50
80212;DHT22;70434;37.956;23.722;2023-11-18T12:51:22;17.50;37.60
80212;DHT22;70434;37.956;23.722;2023-11-18T12:53:49;17.80;36.90
80212;DHT22;70434;37.956;23.722;2023-11-18T12:56:19;17.80;36.40
80212;DHT22;70434;37.956;23.722;2023-11-18T12:58:48;17.60;36.80
80212;DHT22;70434;37.956;23.722;2023-11-18T13:01:14;17.60;35.80
80212;DHT22;70434;37.956;23.722;2023-11-18T13:03:41;17.60;35.40
80212;DHT22;70434;37.956;23.722;2023-11-18T13:06:09;17.60;35.50
80212;DHT22;70434;37.956;23.722;2023-11-18T13:08:40;17.70;35.20
80212;DHT22;70434;37.956;23.722;2023-11-18T13:11:06;17.70;35.60
80212;DHT22;70434;37.956;23.722;2023-11-18T13:13:38;17.60;36.10
80212;DHT22;70434;37.956;23.722;2023-11-18T13:16:06;17.80;35.70
80212;DHT22;70434;37.956;23.722;2023-11-18T13:18:48;17.70;35.80
80212;DHT22;70434;37.956;23.722;2023-11-18T13:21:19;17.90;36.10
80212;DHT22;70434;37.956;23.722;2023-11-18T13:23:46;18.30;35.20
80212;DHT22;70434;37.956;23.722;2023-11-18T13:26:19;18.50;34.50
80212;DHT22;70434;37.956;23.722;2023-11-18T13:28:46;18.40;34.40
80212;DHT22;70434;37.956;23.722;2023-11-18T13:31:13;18.40;35.50
80212;DHT22;70434;37.956;23.722;2023-11-18T13:33:47;18.50;35.40
80212;DHT22;70434;37.956;23.722;2023-11-18T13:36:14;18.50;35.60
80212;DHT22;70434;37.956;23.722;2023-11-18T13:38:41;18.30;34.70
80212;DHT22;70434;37.956;23.722;2023-11-18T13:41:09;18.20;34.20
80212;DHT22;70434;37.956;23.722;2023-11-18T13:43:45;18.10;33.30
80212;DHT22;70434;37.956;23.722;2023-11-18T13:46:13;18.00;33.80
80212;DHT22;70434;37.956;23.722;2023-11-18T13:48:40;17.90;32.80
80212;DHT22;70434;37.956;23.722;2023-11-18T13:51:11;18.00;33.10
80212;DHT22;70434;37.956;23.722;2023-11-18T13:53:41;17.90;33.20
80212;DHT22;70434;37.956;23.722;2023-11-18T13:56:10;17.80;32.90
80212;DHT22;70434;37.956;23.722;2023-11-18T13:58:36;17.30;33.60
80212;DHT22;70434;37.956;23.722;2023-11-18T14:01:10;17.30;33.70
80212;DHT22;70434;37.956;23.722;2023-11-18T14:03:38;17.00;33.40
80212;DHT22;70434;37.956;23.722;2023-11-18T14:06:09;16.90;34.20
80212;DHT22;70434;37.956;23.722;2023-11-18T14:08:40;17.10;34.20
80212;DHT22;70434;37.956;23.722;2023-11-18T14:11:07;17.20;33.90
80212;DHT22;70434;37.956;23.722;2023-11-18T14:13:35;17.30;33.60
80212;DHT22;70434;37.956;23.722;2023-11-18T14:16:04;17.30;33.70
80212;DHT22;70434;37.956;23.722;2023-11-18T14:18:35;17.40;33.60
80212;DHT22;70434;37.956;23.722;2023-11-18T14:21:01;17.60;33.00
80212;DHT22;70434;37.956;23.722;2023-11-18T14:23:27;17.80;32.20
80212;DHT22;70434;37.956;23.722;2023-11-18T14:25:53;17.70;31.90
80212;DHT22;70434;37.956;23.722;2023-11-18T14:28:19;17.50;32.30
80212;DHT22;70434;37.956;23.722;2023-11-18T14:30:50;17.60;32.80
80212;DHT22;70434;37.956;23.722;2023-11-18T14:33:16;17.60;32.60
80212;DHT22;70434;37.956;23.722;2023-11-18T14:35:44;17.60;33.10
80212;DHT22;70434;37.956;23.722;2023-11-18T14:38:10;17.30;32.90
80212;DHT22;70434;37.956;23.722;2023-11-18T14:40:38;17.10;33.60
80212;DHT22;70434;37.956;23.722;2023-11-18T14:43:06;17.10;34.20
80212;DHT22;70434;37.956;23.722;2023-11-18T14:45:32;17.00;34.10
80212;DHT22;70434;37.956;23.722;2023-11-18T14:47:58;16.70;35.00
80212;DHT22;70434;37.956;23.722;2023-11-18T14:50:24;16.70;35.20
80212;DHT22;70434;37.956;23.722;2023-11-18T14:52:52;16.60;35.70
80212;DHT22;70434;37.956;23.722;2023-11-18T14:55:24;16.50;35.70
80212;DHT22;70434;37.956;23.722;2023-11-18T14:57:51;16.60;35.80
80212;DHT22;70434;37.956;23.722;2023-11-18T15:00:17;16.80;35.60
80212;DHT22;70434;37.956;23.722;2023-11-18T15:02:52;16.90;35.10
80212;DHT22;70434;37.956;23.722;2023-11-18T15:05:20;17.10;34.90
80212;DHT22;70434;37.956;23.722;2023-11-18T15:07:51;16.90;35.00
80212;DHT22;70434;37.956;23.722;2023-11-18T15:10:19;16.60;35.90
80212;DHT22;70434;37.956;23.722;2023-11-18T15:12:51;16.50;36.30
80212;DHT22;70434;37.956;23.722;2023-11-18T15:15:28;16.30;36.70
80212;DHT22;70434;37.956;23.722;2023-11-18T15:17:58;16.40;36.60
80212;DHT22;70434;37.956;23.722;2023-11-18T15:20:25;16.50;36.60
80212;DHT22;70434;37.956;23.722;2023-11-18T15:22:51;16.60;36.40
80212;DHT22;70434;37.956;23.722;2023-11-18T15:25:17;16.60;36.50
80212;DHT22;70434;37.956;23.722;2023-11-18T15:27:44;16.60;36.40
80212;DHT22;70434;37.956;23.722;2023-11-18T15:30:16;16.80;36.50
80212;DHT22;70434;37.956;23.722;2023-11-18T15:32:46;16.70;36.30
80212;DHT22;70434;37.956;23.722;2023-11-18T15:35:13;16.50;36.70
80212;DHT22;70434;37.956;23.722;2023-11-18T15:37:42;16.60;36.80
80212;DHT22;70434;37.956;23.722;2023-11-18T15:40:09;16.60;36.50
80212;DHT22;70434;37.956;23.722;2023-11-18T15:42:40;16.60;36.70
80212;DHT22;70434;37.956;23.722;2023-11-18T15:45:11;16.50;36.90